sensor_id;sensor_type;location;lat;lon;timestamp;P1;durP1;ratioP1;P2;durP2;ratioP2
71763;SDS011;59602;52.142;5.408;2022-07-29T00:00:53;2.05;;;0.52;;
71763;SDS011;59602;52.142;5.408;2022-07-29T00:03:34;2.55;;;0.40;;
71763;SDS011;59602;52.142;5.408;2022-07-29T00:06:05;1.00;;;0.30;;
71763;SDS011;59602;52.142;5.408;2022-07-29T00:08:34;1.10;;;0.30;;
71763;SDS011;59602;52.142;5.408;2022-07-29T00:11:21;2.65;;;0.30;;
71763;SDS011;59602;52.142;5.408;2022-07-29T00:14:02;1.92;;;0.35;;
71763;SDS011;59602;52.142;5.408;2022-07-29T00:16:34;2.15;;;0.30;;
71763;SDS011;59602;52.142;5.408;2022-07-29T00:19:02;2.07;;;0.30;;
71763;SDS011;59602;52.142;5.408;2022-07-29T00:21:54;2.22;;;0.73;;
71763;SDS011;59602;52.142;5.408;2022-07-29T00:24:20;1.67;;;0.30;;
71763;SDS011;59602;52.142;5.408;2022-07-29T00:26:50;2.35;;;0.40;;
71763;SDS011;59602;52.142;5.408;2022-07-29T00:29:17;2.38;;;0.30;;
71763;SDS011;59602;52.142;5.408;2022-07-29T00:31:59;4.63;;;0.40;;
71763;SDS011;59602;52.142;5.408;2022-07-29T00:34:26;2.30;;;0.40;;
71763;SDS011;59602;52.142;5.408;2022-07-29T00:40:17;3.88;;;0.40;;
71763;SDS011;59602;52.142;5.408;2022-07-29T00:42:49;0.93;;;0.30;;
71763;SDS011;59602;52.142;5.408;2022-07-29T00:45:20;1.53;;;0.30;;
71763;SDS011;59602;52.142;5.408;2022-07-29T00:47:54;2.45;;;0.30;;
71763;SDS011;59602;52.142;5.408;2022-07-29T00:50:20;1.02;;;0.30;;
71763;SDS011;59602;52.142;5.408;2022-07-29T00:52:47;2.80;;;0.40;;
71763;SDS011;59602;52.142;5.408;2022-07-29T00:55:15;1.80;;;0.30;;
71763;SDS011;59602;52.142;5.408;2022-07-29T00:57:43;2.83;;;0.33;;
71763;SDS011;59602;52.142;5.408;2022-07-29T01:00:14;2.65;;;0.40;;
71763;SDS011;59602;52.142;5.408;2022-07-29T01:02:44;2.80;;;0.40;;
71763;SDS011;59602;52.142;5.408;2022-07-29T01:05:44;1.00;;;0.30;;
71763;SDS011;59602;52.142;5.408;2022-07-29T01:08:16;1.42;;;0.35;;
71763;SDS011;59602;52.142;5.408;2022-07-29T01:11:05;2.73;;;0.30;;
71763;SDS011;59602;52.142;5.408;2022-07-29T01:13:31;2.08;;;0.30;;
71763;SDS011;59602;52.142;5.408;2022-07-29T01:19:00;3.08;;;0.50;;
71763;SDS011;59602;52.142;5.408;2022-07-29T01:21:55;1.52;;;0.40;;
71763;SDS011;59602;52.142;5.408;2022-07-29T01:24:33;1.03;;;0.30;;
71763;SDS011;59602;52.142;5.408;2022-07-29T01:30:40;0.95;;;0.30;;
71763;SDS011;59602;52.142;5.408;2022-07-29T01:33:10;2.55;;;0.35;;
71763;SDS011;59602;52.142;5.408;2022-07-29T01:36:01;1.42;;;0.30;;
71763;SDS011;59602;52.142;5.408;2022-07-29T01:38:31;2.87;;;0.37;;
71763;SDS011;59602;52.142;5.408;2022-07-29T01:41:02;1.10;;;0.30;;
71763;SDS011;59602;52.142;5.408;2022-07-29T01:46:09;1.55;;;0.28;;
71763;SDS011;59602;52.142;5.408;2022-07-29T01:48:44;3.60;;;0.38;;
71763;SDS011;59602;52.142;5.408;2022-07-29T01:51:21;4.03;;;0.40;;
71763;SDS011;59602;52.142;5.408;2022-07-29T01:54:06;1.75;;;0.40;;
71763;SDS011;59602;52.142;5.408;2022-07-29T01:56:36;2.58;;;0.38;;
71763;SDS011;59602;52.142;5.408;2022-07-29T01:59:06;1.77;;;0.30;;
71763;SDS011;59602;52.142;5.408;2022-07-29T02:01:36;1.48;;;0.35;;
71763;SDS011;59602;52.142;5.408;2022-07-29T02:04:06;2.17;;;0.30;;
71763;SDS011;59602;52.142;5.408;2022-07-29T02:06:36;2.38;;;0.40;;
71763;SDS011;59602;52.142;5.408;2022-07-29T02:09:04;2.42;;;0.30;;
71763;SDS011;59602;52.142;5.408;2022-07-29T02:11:33;1.83;;;0.30;;
71763;SDS011;59602;52.142;5.408;2022-07-29T02:14:02;2.30;;;0.30;;
71763;SDS011;59602;52.142;5.408;2022-07-29T02:16:31;0.93;;;0.40;;
71763;SDS011;59602;52.142;5.408;2022-07-29T02:19:00;1.50;;;0.40;;
71763;SDS011;59602;52.142;5.408;2022-07-29T02:21:29;1.85;;;0.40;;
71763;SDS011;59602;52.142;5.408;2022-07-29T02:23:59;1.60;;;0.63;;
71763;SDS011;59602;52.142;5.408;2022-07-29T02:26:28;3.05;;;0.40;;
71763;SDS011;59602;52.142;5.408;2022-07-29T02:28:59;4.07;;;0.70;;
71763;SDS011;59602;52.142;5.408;2022-07-29T02:31:28;1.40;;;0.40;;
71763;SDS011;59602;52.142;5.408;2022-07-29T02:33:58;1.65;;;0.40;;
71763;SDS011;59602;52.142;5.408;2022-07-29T02:36:28;3.55;;;0.50;;
71763;SDS011;59602;52.142;5.408;2022-07-29T02:38:57;2.75;;;0.52;;
71763;SDS011;59602;52.142;5.408;2022-07-29T02:41:28;1.93;;;0.50;;
71763;SDS011;59602;52.142;5.408;2022-07-29T02:44:03;4.03;;;0.40;;
71763;SDS011;59602;52.142;5.408;2022-07-29T02:46:35;1.60;;;0.45;;
71763;SDS011;59602;52.142;5.408;2022-07-29T02:49:09;2.38;;;0.50;;
71763;SDS011;59602;52.142;5.408;2022-07-29T02:52:10;1.38;;;0.50;;
71763;SDS011;59602;52.142;5.408;2022-07-29T02:54:46;2.30;;;0.40;;
71763;SDS011;59602;52.142;5.408;2022-07-29T02:57:20;1.63;;;0.45;;
71763;SDS011;59602;52.142;5.408;2022-07-29T02:59:51;3.00;;;0.50;;
71763;SDS011;59602;52.142;5.408;2022-07-29T03:02:20;1.67;;;0.50;;
71763;SDS011;59602;52.142;5.408;2022-07-29T03:04:47;2.30;;;0.47;;
71763;SDS011;59602;52.142;5.408;2022-07-29T03:07:42;1.93;;;0.50;;
71763;SDS011;59602;52.142;5.408;2022-07-29T03:10:15;1.70;;;0.52;;
71763;SDS011;59602;52.142;5.408;2022-07-29T03:12:43;1.38;;;0.47;;
71763;SDS011;59602;52.142;5.408;2022-07-29T03:15:10;1.73;;;0.50;;
71763;SDS011;59602;52.142;5.408;2022-07-29T03:17:37;1.25;;;0.50;;
71763;SDS011;59602;52.142;5.408;2022-07-29T03:20:06;2.43;;;0.40;;
71763;SDS011;59602;52.142;5.408;2022-07-29T03:22:38;3.15;;;0.50;;
71763;SDS011;59602;52.142;5.408;2022-07-29T03:25:10;3.72;;;0.80;;
71763;SDS011;59602;52.142;5.408;2022-07-29T03:27:37;1.98;;;0.60;;
71763;SDS011;59602;52.142;5.408;2022-07-29T03:30:21;1.65;;;0.45;;
71763;SDS011;59602;52.142;5.408;2022-07-29T03:33:05;2.77;;;0.43;;
71763;SDS011;59602;52.142;5.408;2022-07-29T03:35:38;2.40;;;0.60;;
71763;SDS011;59602;52.142;5.408;2022-07-29T03:38:09;2.08;;;0.45;;
71763;SDS011;59602;52.142;5.408;2022-07-29T03:43:09;2.13;;;0.63;;
71763;SDS011;59602;52.142;5.408;2022-07-29T03:45:47;2.23;;;0.50;;
71763;SDS011;59602;52.142;5.408;2022-07-29T03:48:21;1.45;;;0.50;;
71763;SDS011;59602;52.142;5.408;2022-07-29T03:51:11;3.17;;;0.43;;
71763;SDS011;59602;52.142;5.408;2022-07-29T03:53:39;2.25;;;0.40;;
71763;SDS011;59602;52.142;5.408;2022-07-29T03:56:05;1.88;;;0.50;;
71763;SDS011;59602;52.142;5.408;2022-07-29T03:58:55;2.23;;;0.60;;
71763;SDS011;59602;52.142;5.408;2022-07-29T04:01:22;2.28;;;0.55;;
71763;SDS011;59602;52.142;5.408;2022-07-29T04:03:51;3.17;;;0.60;;
71763;SDS011;59602;52.142;5.408;2022-07-29T04:06:39;2.22;;;0.60;;
71763;SDS011;59602;52.142;5.408;2022-07-29T04:09:09;3.75;;;0.50;;
71763;SDS011;59602;52.142;5.408;2022-07-29T04:11:36;4.60;;;0.67;;
71763;SDS011;59602;52.142;5.408;2022-07-29T04:14:25;1.27;;;0.30;;
71763;SDS011;59602;52.142;5.408;2022-07-29T04:19:40;2.00;;;0.50;;
71763;SDS011;59602;52.142;5.408;2022-07-29T04:22:10;3.33;;;0.60;;
71763;SDS011;59602;52.142;5.408;2022-07-29T04:24:36;2.40;;;0.60;;
71763;SDS011;59602;52.142;5.408;2022-07-29T04:27:03;2.33;;;0.73;;
71763;SDS011;59602;52.142;5.408;2022-07-29T04:29:38;3.83;;;0.60;;
71763;SDS011;59602;52.142;5.408;2022-07-29T04:32:22;2.55;;;0.50;;
71763;SDS011;59602;52.142;5.408;2022-07-29T04:35:51;2.67;;;0.60;;
71763;SDS011;59602;52.142;5.408;2022-07-29T04:37:49;2.10;;;0.60;;
71763;SDS011;59602;52.142;5.408;2022-07-29T04:40:16;2.25;;;0.50;;
71763;SDS011;59602;52.142;5.408;2022-07-29T04:42:43;2.20;;;0.52;;
71763;SDS011;59602;52.142;5.408;2022-07-29T04:45:22;3.80;;;0.60;;
71763;SDS011;59602;52.142;5.408;2022-07-29T04:47:49;2.45;;;0.52;;
71763;SDS011;59602;52.142;5.408;2022-07-29T04:50:19;2.00;;;0.60;;
71763;SDS011;59602;52.142;5.408;2022-07-29T04:52:47;2.80;;;0.80;;
71763;SDS011;59602;52.142;5.408;2022-07-29T04:55:14;1.73;;;0.60;;
71763;SDS011;59602;52.142;5.408;2022-07-29T04:57:40;1.35;;;0.50;;
71763;SDS011;59602;52.142;5.408;2022-07-29T05:00:10;2.00;;;0.50;;
71763;SDS011;59602;52.142;5.408;2022-07-29T05:02:58;2.50;;;0.57;;
71763;SDS011;59602;52.142;5.408;2022-07-29T05:05:35;3.13;;;0.65;;
71763;SDS011;59602;52.142;5.408;2022-07-29T05:08:01;4.72;;;0.60;;
71763;SDS011;59602;52.142;5.408;2022-07-29T05:10:51;2.92;;;0.70;;
71763;SDS011;59602;52.142;5.408;2022-07-29T05:33:06;3.13;;;0.65;;
71763;SDS011;59602;52.142;5.408;2022-07-29T05:35:33;2.72;;;0.50;;
71763;SDS011;59602;52.142;5.408;2022-07-29T05:38:01;2.85;;;0.73;;
71763;SDS011;59602;52.142;5.408;2022-07-29T05:40:27;6.68;;;1.00;;
71763;SDS011;59602;52.142;5.408;2022-07-29T05:42:54;2.30;;;0.67;;
71763;SDS011;59602;52.142;5.408;2022-07-29T05:48:57;2.35;;;0.80;;
71763;SDS011;59602;52.142;5.408;2022-07-29T05:51:16;3.72;;;0.80;;
71763;SDS011;59602;52.142;5.408;2022-07-29T05:53:42;2.90;;;0.80;;
71763;SDS011;59602;52.142;5.408;2022-07-29T05:56:10;2.93;;;0.83;;
71763;SDS011;59602;52.142;5.408;2022-07-29T05:58:37;3.55;;;0.77;;
71763;SDS011;59602;52.142;5.408;2022-07-29T06:10:48;3.07;;;1.00;;
71763;SDS011;59602;52.142;5.408;2022-07-29T06:13:15;4.47;;;1.10;;
71763;SDS011;59602;52.142;5.408;2022-07-29T06:15:42;1.67;;;0.57;;
71763;SDS011;59602;52.142;5.408;2022-07-29T06:18:09;1.95;;;0.60;;
71763;SDS011;59602;52.142;5.408;2022-07-29T06:20:39;1.83;;;0.60;;
71763;SDS011;59602;52.142;5.408;2022-07-29T06:23:05;2.10;;;0.80;;
71763;SDS011;59602;52.142;5.408;2022-07-29T06:35:13;2.95;;;0.70;;
71763;SDS011;59602;52.142;5.408;2022-07-29T06:41:47;1.45;;;0.70;;
71763;SDS011;59602;52.142;5.408;2022-07-29T06:44:42;3.78;;;1.15;;
71763;SDS011;59602;52.142;5.408;2022-07-29T06:54:38;3.30;;;0.90;;
71763;SDS011;59602;52.142;5.408;2022-07-29T07:00:46;3.22;;;1.10;;
71763;SDS011;59602;52.142;5.408;2022-07-29T07:03:43;1.83;;;0.73;;
71763;SDS011;59602;52.142;5.408;2022-07-29T07:06:10;3.03;;;0.90;;
71763;SDS011;59602;52.142;5.408;2022-07-29T07:08:40;3.60;;;0.90;;
71763;SDS011;59602;52.142;5.408;2022-07-29T07:11:07;2.10;;;0.82;;
71763;SDS011;59602;52.142;5.408;2022-07-29T07:13:34;3.33;;;0.98;;
71763;SDS011;59602;52.142;5.408;2022-07-29T07:30:19;3.55;;;0.90;;
71763;SDS011;59602;52.142;5.408;2022-07-29T07:43:45;2.95;;;0.98;;
71763;SDS011;59602;52.142;5.408;2022-07-29T07:50:05;3.22;;;1.08;;
71763;SDS011;59602;52.142;5.408;2022-07-29T08:00:20;4.70;;;1.30;;
71763;SDS011;59602;52.142;5.408;2022-07-29T08:02:51;2.92;;;0.77;;
71763;SDS011;59602;52.142;5.408;2022-07-29T08:09:03;3.10;;;1.20;;
71763;SDS011;59602;52.142;5.408;2022-07-29T08:14:55;2.72;;;0.80;;
71763;SDS011;59602;52.142;5.408;2022-07-29T08:21:08;3.50;;;1.25;;
71763;SDS011;59602;52.142;5.408;2022-07-29T08:23:58;2.88;;;1.08;;
71763;SDS011;59602;52.142;5.408;2022-07-29T08:26:49;3.40;;;1.20;;
71763;SDS011;59602;52.142;5.408;2022-07-29T08:29:39;3.28;;;0.98;;
71763;SDS011;59602;52.142;5.408;2022-07-29T08:32:34;1.83;;;0.90;;
71763;SDS011;59602;52.142;5.408;2022-07-29T08:36:04;2.78;;;0.93;;
71763;SDS011;59602;52.142;5.408;2022-07-29T08:38:47;2.78;;;1.20;;
71763;SDS011;59602;52.142;5.408;2022-07-29T08:41:36;5.07;;;1.67;;
71763;SDS011;59602;52.142;5.408;2022-07-29T08:44:08;2.88;;;1.13;;
71763;SDS011;59602;52.142;5.408;2022-07-29T08:46:51;3.95;;;1.50;;
71763;SDS011;59602;52.142;5.408;2022-07-29T08:59:20;3.97;;;1.10;;
71763;SDS011;59602;52.142;5.408;2022-07-29T09:02:49;5.63;;;1.45;;
71763;SDS011;59602;52.142;5.408;2022-07-29T09:05:27;4.03;;;1.17;;
71763;SDS011;59602;52.142;5.408;2022-07-29T09:11:42;3.50;;;1.30;;
71763;SDS011;59602;52.142;5.408;2022-07-29T09:14:10;4.10;;;1.10;;
71763;SDS011;59602;52.142;5.408;2022-07-29T09:16:45;4.07;;;1.45;;
71763;SDS011;59602;52.142;5.408;2022-07-29T09:19:20;6.53;;;1.30;;
71763;SDS011;59602;52.142;5.408;2022-07-29T09:21:49;3.30;;;0.80;;
71763;SDS011;59602;52.142;5.408;2022-07-29T09:24:25;1.93;;;0.83;;
71763;SDS011;59602;52.142;5.408;2022-07-29T09:26:56;2.08;;;0.70;;
71763;SDS011;59602;52.142;5.408;2022-07-29T09:29:59;3.72;;;1.02;;
71763;SDS011;59602;52.142;5.408;2022-07-29T09:35:58;1.67;;;0.70;;
71763;SDS011;59602;52.142;5.408;2022-07-29T09:42:44;2.95;;;1.20;;
71763;SDS011;59602;52.142;5.408;2022-07-29T09:44:59;5.55;;;1.23;;
71763;SDS011;59602;52.142;5.408;2022-07-29T09:47:45;5.15;;;1.05;;
71763;SDS011;59602;52.142;5.408;2022-07-29T09:58:16;3.97;;;0.88;;
71763;SDS011;59602;52.142;5.408;2022-07-29T10:00:47;4.03;;;1.52;;
71763;SDS011;59602;52.142;5.408;2022-07-29T10:03:17;5.65;;;1.35;;
71763;SDS011;59602;52.142;5.408;2022-07-29T10:06:09;2.30;;;1.20;;
71763;SDS011;59602;52.142;5.408;2022-07-29T10:08:37;2.37;;;1.73;;
71763;SDS011;59602;52.142;5.408;2022-07-29T10:11:11;4.57;;;1.30;;
71763;SDS011;59602;52.142;5.408;2022-07-29T10:13:48;2.75;;;1.27;;
71763;SDS011;59602;52.142;5.408;2022-07-29T10:16:24;5.28;;;1.45;;
71763;SDS011;59602;52.142;5.408;2022-07-29T10:19:24;4.97;;;1.92;;
71763;SDS011;59602;52.142;5.408;2022-07-29T10:28:12;4.05;;;1.73;;
71763;SDS011;59602;52.142;5.408;2022-07-29T10:30:50;4.47;;;1.50;;
71763;SDS011;59602;52.142;5.408;2022-07-29T10:36:54;5.13;;;2.30;;
71763;SDS011;59602;52.142;5.408;2022-07-29T10:42:36;5.70;;;2.05;;
71763;SDS011;59602;52.142;5.408;2022-07-29T10:45:16;4.25;;;2.10;;
71763;SDS011;59602;52.142;5.408;2022-07-29T10:49:13;3.70;;;1.95;;
71763;SDS011;59602;52.142;5.408;2022-07-29T10:52:15;4.63;;;1.80;;
71763;SDS011;59602;52.142;5.408;2022-07-29T10:54:46;3.50;;;2.17;;
71763;SDS011;59602;52.142;5.408;2022-07-29T10:57:26;5.97;;;2.15;;
71763;SDS011;59602;52.142;5.408;2022-07-29T11:08:56;5.13;;;2.60;;
71763;SDS011;59602;52.142;5.408;2022-07-29T11:11:41;3.17;;;2.00;;
71763;SDS011;59602;52.142;5.408;2022-07-29T11:14:57;4.65;;;2.45;;
71763;SDS011;59602;52.142;5.408;2022-07-29T11:17:26;4.72;;;2.03;;
71763;SDS011;59602;52.142;5.408;2022-07-29T11:37:44;5.63;;;2.37;;
71763;SDS011;59602;52.142;5.408;2022-07-29T11:40:23;3.97;;;1.70;;
71763;SDS011;59602;52.142;5.408;2022-07-29T11:42:50;5.07;;;1.90;;
71763;SDS011;59602;52.142;5.408;2022-07-29T11:45:21;4.72;;;1.48;;
71763;SDS011;59602;52.142;5.408;2022-07-29T11:52:18;3.73;;;1.30;;
71763;SDS011;59602;52.142;5.408;2022-07-29T11:55:11;2.10;;;1.27;;
71763;SDS011;59602;52.142;5.408;2022-07-29T12:08:49;2.73;;;1.40;;
71763;SDS011;59602;52.142;5.408;2022-07-29T12:15:34;5.75;;;1.40;;
71763;SDS011;59602;52.142;5.408;2022-07-29T12:18:26;3.95;;;1.60;;
71763;SDS011;59602;52.142;5.408;2022-07-29T12:27:41;4.20;;;1.50;;
71763;SDS011;59602;52.142;5.408;2022-07-29T12:30:13;4.82;;;1.60;;
71763;SDS011;59602;52.142;5.408;2022-07-29T12:33:25;6.15;;;2.00;;
71763;SDS011;59602;52.142;5.408;2022-07-29T12:36:58;8.32;;;2.25;;
71763;SDS011;59602;52.142;5.408;2022-07-29T12:43:56;8.35;;;1.60;;
71763;SDS011;59602;52.142;5.408;2022-07-29T12:46:26;6.80;;;1.73;;
71763;SDS011;59602;52.142;5.408;2022-07-29T12:48:57;4.80;;;1.52;;
71763;SDS011;59602;52.142;5.408;2022-07-29T12:52:08;3.58;;;1.50;;
71763;SDS011;59602;52.142;5.408;2022-07-29T12:54:18;5.50;;;1.30;;
71763;SDS011;59602;52.142;5.408;2022-07-29T12:56:45;4.40;;;1.50;;
71763;SDS011;59602;52.142;5.408;2022-07-29T13:01:42;4.15;;;1.65;;
71763;SDS011;59602;52.142;5.408;2022-07-29T13:04:28;3.30;;;1.88;;
71763;SDS011;59602;52.142;5.408;2022-07-29T13:36:50;3.80;;;2.03;;
71763;SDS011;59602;52.142;5.408;2022-07-29T13:54:38;5.03;;;2.63;;
71763;SDS011;59602;52.142;5.408;2022-07-29T14:00:48;3.03;;;2.10;;
71763;SDS011;59602;52.142;5.408;2022-07-29T14:16:02;5.38;;;2.13;;
71763;SDS011;59602;52.142;5.408;2022-07-29T14:21:52;4.00;;;1.92;;
71763;SDS011;59602;52.142;5.408;2022-07-29T14:24:40;4.50;;;1.95;;
71763;SDS011;59602;52.142;5.408;2022-07-29T14:32:19;4.28;;;1.75;;
71763;SDS011;59602;52.142;5.408;2022-07-29T14:35:21;5.20;;;1.83;;
71763;SDS011;59602;52.142;5.408;2022-07-29T14:49:13;6.30;;;1.90;;
71763;SDS011;59602;52.142;5.408;2022-07-29T14:53:07;5.10;;;2.33;;
71763;SDS011;59602;52.142;5.408;2022-07-29T15:10:29;6.90;;;2.10;;
71763;SDS011;59602;52.142;5.408;2022-07-29T15:13:38;5.15;;;1.30;;
71763;SDS011;59602;52.142;5.408;2022-07-29T15:19:49;3.87;;;1.10;;
71763;SDS011;59602;52.142;5.408;2022-07-29T15:38:36;3.15;;;1.08;;
71763;SDS011;59602;52.142;5.408;2022-07-29T16:25:37;2.50;;;0.93;;
71763;SDS011;59602;52.142;5.408;2022-07-29T16:56:09;4.43;;;1.10;;
71763;SDS011;59602;52.142;5.408;2022-07-29T17:17:09;3.17;;;1.00;;
71763;SDS011;59602;52.142;5.408;2022-07-29T17:23:39;3.70;;;0.98;;
71763;SDS011;59602;52.142;5.408;2022-07-29T17:31:42;4.33;;;0.80;;
71763;SDS011;59602;52.142;5.408;2022-07-29T17:34:12;2.47;;;0.90;;
71763;SDS011;59602;52.142;5.408;2022-07-29T17:41:00;3.80;;;1.13;;
71763;SDS011;59602;52.142;5.408;2022-07-29T17:50:04;1.73;;;0.85;;
71763;SDS011;59602;52.142;5.408;2022-07-29T18:00:39;3.50;;;1.13;;
71763;SDS011;59602;52.142;5.408;2022-07-29T18:03:13;4.10;;;0.90;;
71763;SDS011;59602;52.142;5.408;2022-07-29T18:06:06;3.08;;;1.15;;
71763;SDS011;59602;52.142;5.408;2022-07-29T18:08:38;3.83;;;1.23;;
71763;SDS011;59602;52.142;5.408;2022-07-29T18:14:09;2.83;;;0.73;;
71763;SDS011;59602;52.142;5.408;2022-07-29T18:19:26;3.25;;;1.00;;
71763;SDS011;59602;52.142;5.408;2022-07-29T18:25:07;3.92;;;0.90;;
71763;SDS011;59602;52.142;5.408;2022-07-29T18:27:52;3.35;;;0.90;;
71763;SDS011;59602;52.142;5.408;2022-07-29T18:30:25;2.33;;;0.80;;
71763;SDS011;59602;52.142;5.408;2022-07-29T18:32:52;2.13;;;0.90;;
71763;SDS011;59602;52.142;5.408;2022-07-29T18:35:38;5.28;;;1.00;;
71763;SDS011;59602;52.142;5.408;2022-07-29T18:38:05;3.47;;;1.10;;
71763;SDS011;59602;52.142;5.408;2022-07-29T18:40:34;8.27;;;1.90;;
71763;SDS011;59602;52.142;5.408;2022-07-29T18:43:15;3.00;;;1.17;;
71763;SDS011;59602;52.142;5.408;2022-07-29T18:45:41;3.70;;;1.00;;
71763;SDS011;59602;52.142;5.408;2022-07-29T18:48:08;3.33;;;1.50;;
71763;SDS011;59602;52.142;5.408;2022-07-29T18:50:38;2.15;;;1.05;;
71763;SDS011;59602;52.142;5.408;2022-07-29T18:53:05;3.97;;;1.75;;
71763;SDS011;59602;52.142;5.408;2022-07-29T18:55:32;4.80;;;1.37;;
71763;SDS011;59602;52.142;5.408;2022-07-29T18:57:59;6.50;;;2.03;;
71763;SDS011;59602;52.142;5.408;2022-07-29T19:00:26;4.15;;;1.38;;
71763;SDS011;59602;52.142;5.408;2022-07-29T19:02:56;5.35;;;1.38;;
71763;SDS011;59602;52.142;5.408;2022-07-29T19:08:30;5.50;;;1.50;;
71763;SDS011;59602;52.142;5.408;2022-07-29T19:11:09;5.03;;;1.50;;
71763;SDS011;59602;52.142;5.408;2022-07-29T19:13:37;8.43;;;1.75;;
71763;SDS011;59602;52.142;5.408;2022-07-29T19:16:05;6.45;;;1.40;;
71763;SDS011;59602;52.142;5.408;2022-07-29T19:18:32;7.03;;;1.70;;
71763;SDS011;59602;52.142;5.408;2022-07-29T19:21:00;5.43;;;1.90;;
71763;SDS011;59602;52.142;5.408;2022-07-29T19:23:27;4.05;;;1.65;;
71763;SDS011;59602;52.142;5.408;2022-07-29T19:25:53;3.30;;;1.73;;
71763;SDS011;59602;52.142;5.408;2022-07-29T19:28:20;3.38;;;1.30;;
71763;SDS011;59602;52.142;5.408;2022-07-29T19:30:47;2.58;;;1.35;;
71763;SDS011;59602;52.142;5.408;2022-07-29T19:33:17;6.20;;;1.93;;
71763;SDS011;59602;52.142;5.408;2022-07-29T19:35:44;5.65;;;1.50;;
71763;SDS011;59602;52.142;5.408;2022-07-29T19:38:14;4.03;;;1.73;;
71763;SDS011;59602;52.142;5.408;2022-07-29T19:40:41;5.90;;;1.95;;
71763;SDS011;59602;52.142;5.408;2022-07-29T19:43:07;3.85;;;1.63;;
71763;SDS011;59602;52.142;5.408;2022-07-29T19:45:54;3.90;;;2.00;;
71763;SDS011;59602;52.142;5.408;2022-07-29T19:48:21;5.43;;;1.58;;
71763;SDS011;59602;52.142;5.408;2022-07-29T19:50:48;3.50;;;1.60;;
71763;SDS011;59602;52.142;5.408;2022-07-29T19:53:15;3.40;;;1.88;;
71763;SDS011;59602;52.142;5.408;2022-07-29T19:55:42;6.30;;;1.63;;
71763;SDS011;59602;52.142;5.408;2022-07-29T19:58:09;5.63;;;2.40;;
71763;SDS011;59602;52.142;5.408;2022-07-29T20:01:09;5.70;;;1.73;;
71763;SDS011;59602;52.142;5.408;2022-07-29T20:03:42;6.15;;;2.05;;
71763;SDS011;59602;52.142;5.408;2022-07-29T20:06:09;4.28;;;1.67;;
71763;SDS011;59602;52.142;5.408;2022-07-29T20:08:36;7.00;;;2.00;;
71763;SDS011;59602;52.142;5.408;2022-07-29T20:11:06;6.57;;;2.33;;
71763;SDS011;59602;52.142;5.408;2022-07-29T20:13:32;4.47;;;2.20;;
71763;SDS011;59602;52.142;5.408;2022-07-29T20:16:00;4.57;;;1.83;;
71763;SDS011;59602;52.142;5.408;2022-07-29T20:18:30;5.90;;;1.80;;
71763;SDS011;59602;52.142;5.408;2022-07-29T20:20:56;6.28;;;1.90;;
71763;SDS011;59602;52.142;5.408;2022-07-29T20:23:25;3.90;;;1.70;;
71763;SDS011;59602;52.142;5.408;2022-07-29T20:25:52;5.45;;;2.45;;
71763;SDS011;59602;52.142;5.408;2022-07-29T20:28:20;5.30;;;1.90;;
71763;SDS011;59602;52.142;5.408;2022-07-29T20:30:46;5.07;;;2.08;;
71763;SDS011;59602;52.142;5.408;2022-07-29T20:33:14;4.07;;;2.30;;
71763;SDS011;59602;52.142;5.408;2022-07-29T20:35:41;6.07;;;2.00;;
71763;SDS011;59602;52.142;5.408;2022-07-29T20:38:08;6.43;;;1.80;;
71763;SDS011;59602;52.142;5.408;2022-07-29T20:40:40;7.25;;;1.80;;
71763;SDS011;59602;52.142;5.408;2022-07-29T20:43:06;6.40;;;2.20;;
71763;SDS011;59602;52.142;5.408;2022-07-29T20:45:34;5.63;;;1.80;;
71763;SDS011;59602;52.142;5.408;2022-07-29T20:48:02;5.87;;;2.43;;
71763;SDS011;59602;52.142;5.408;2022-07-29T20:50:29;4.65;;;1.95;;
71763;SDS011;59602;52.142;5.408;2022-07-29T20:52:56;5.88;;;2.47;;
71763;SDS011;59602;52.142;5.408;2022-07-29T20:55:25;5.53;;;2.33;;
71763;SDS011;59602;52.142;5.408;2022-07-29T20:57:55;6.07;;;2.25;;
71763;SDS011;59602;52.142;5.408;2022-07-29T21:00:21;7.60;;;2.33;;
71763;SDS011;59602;52.142;5.408;2022-07-29T21:02:48;5.88;;;2.33;;
71763;SDS011;59602;52.142;5.408;2022-07-29T21:05:15;7.43;;;2.15;;
71763;SDS011;59602;52.142;5.408;2022-07-29T21:07:41;7.35;;;2.35;;
71763;SDS011;59602;52.142;5.408;2022-07-29T21:10:08;8.38;;;2.53;;
71763;SDS011;59602;52.142;5.408;2022-07-29T21:12:35;9.33;;;2.03;;
71763;SDS011;59602;52.142;5.408;2022-07-29T21:15:02;4.80;;;2.50;;
71763;SDS011;59602;52.142;5.408;2022-07-29T21:17:34;7.38;;;2.00;;
71763;SDS011;59602;52.142;5.408;2022-07-29T21:20:03;7.07;;;2.67;;
71763;SDS011;59602;52.142;5.408;2022-07-29T21:22:33;6.47;;;2.17;;
71763;SDS011;59602;52.142;5.408;2022-07-29T21:25:00;7.10;;;2.50;;
71763;SDS011;59602;52.142;5.408;2022-07-29T21:27:27;7.90;;;2.50;;
71763;SDS011;59602;52.142;5.408;2022-07-29T21:30:12;8.27;;;2.88;;
71763;SDS011;59602;52.142;5.408;2022-07-29T21:32:40;6.72;;;2.60;;
71763;SDS011;59602;52.142;5.408;2022-07-29T21:35:07;7.85;;;2.33;;
71763;SDS011;59602;52.142;5.408;2022-07-29T21:37:55;7.30;;;2.20;;
71763;SDS011;59602;52.142;5.408;2022-07-29T21:40:23;4.50;;;2.00;;
71763;SDS011;59602;52.142;5.408;2022-07-29T21:42:50;5.97;;;1.95;;
71763;SDS011;59602;52.142;5.408;2022-07-29T21:45:16;5.38;;;2.00;;
71763;SDS011;59602;52.142;5.408;2022-07-29T21:47:45;7.28;;;2.20;;
71763;SDS011;59602;52.142;5.408;2022-07-29T21:50:12;6.07;;;2.07;;
71763;SDS011;59602;52.142;5.408;2022-07-29T21:52:39;5.25;;;2.15;;
71763;SDS011;59602;52.142;5.408;2022-07-29T21:55:06;4.00;;;1.80;;
71763;SDS011;59602;52.142;5.408;2022-07-29T21:57:35;7.47;;;2.60;;
71763;SDS011;59602;52.142;5.408;2022-07-29T22:00:02;6.07;;;2.05;;
71763;SDS011;59602;52.142;5.408;2022-07-29T22:02:31;5.27;;;2.50;;
71763;SDS011;59602;52.142;5.408;2022-07-29T22:04:57;5.13;;;2.10;;
71763;SDS011;59602;52.142;5.408;2022-07-29T22:07:24;7.97;;;2.00;;
71763;SDS011;59602;52.142;5.408;2022-07-29T22:10:10;7.70;;;1.92;;
71763;SDS011;59602;52.142;5.408;2022-07-29T22:12:37;7.07;;;1.95;;
71763;SDS011;59602;52.142;5.408;2022-07-29T22:15:04;4.77;;;1.73;;
71763;SDS011;59602;52.142;5.408;2022-07-29T22:17:31;5.85;;;2.25;;
71763;SDS011;59602;52.142;5.408;2022-07-29T22:19:58;6.15;;;1.83;;
71763;SDS011;59602;52.142;5.408;2022-07-29T22:22:26;7.38;;;2.22;;
71763;SDS011;59602;52.142;5.408;2022-07-29T22:24:52;6.47;;;1.85;;
71763;SDS011;59602;52.142;5.408;2022-07-29T22:27:20;5.87;;;2.27;;
71763;SDS011;59602;52.142;5.408;2022-07-29T22:29:47;7.10;;;2.20;;
71763;SDS011;59602;52.142;5.408;2022-07-29T22:32:14;5.65;;;1.98;;
71763;SDS011;59602;52.142;5.408;2022-07-29T22:34:40;6.22;;;2.10;;
71763;SDS011;59602;52.142;5.408;2022-07-29T22:37:07;7.47;;;2.13;;
71763;SDS011;59602;52.142;5.408;2022-07-29T22:39:34;6.73;;;1.80;;
71763;SDS011;59602;52.142;5.408;2022-07-29T22:42:00;7.32;;;2.25;;
71763;SDS011;59602;52.142;5.408;2022-07-29T22:44:27;7.75;;;2.10;;
71763;SDS011;59602;52.142;5.408;2022-07-29T22:46:53;6.28;;;2.40;;
71763;SDS011;59602;52.142;5.408;2022-07-29T22:49:20;7.68;;;2.60;;
71763;SDS011;59602;52.142;5.408;2022-07-29T22:51:46;6.73;;;2.23;;
71763;SDS011;59602;52.142;5.408;2022-07-29T22:54:13;4.78;;;2.20;;
71763;SDS011;59602;52.142;5.408;2022-07-29T22:56:40;6.43;;;2.50;;
71763;SDS011;59602;52.142;5.408;2022-07-29T22:59:07;4.32;;;2.10;;
71763;SDS011;59602;52.142;5.408;2022-07-29T23:01:34;3.53;;;2.08;;
71763;SDS011;59602;52.142;5.408;2022-07-29T23:04:03;6.77;;;2.53;;
71763;SDS011;59602;52.142;5.408;2022-07-29T23:06:29;6.35;;;2.30;;
71763;SDS011;59602;52.142;5.408;2022-07-29T23:08:56;10.77;;;2.63;;
71763;SDS011;59602;52.142;5.408;2022-07-29T23:11:22;8.38;;;2.60;;
71763;SDS011;59602;52.142;5.408;2022-07-29T23:13:49;4.10;;;1.92;;
71763;SDS011;59602;52.142;5.408;2022-07-29T23:16:15;5.63;;;2.30;;
71763;SDS011;59602;52.142;5.408;2022-07-29T23:18:52;6.78;;;2.35;;